sensor_id;sensor_type;location;lat;lon;timestamp;temperature;humidity
19152;DHT22;9708;53.114;9.388;2023-08-24T00:01:57;18.30;99.90
19152;DHT22;9708;53.114;9.388;2023-08-24T00:04:24;18.30;99.90
19152;DHT22;9708;53.114;9.388;2023-08-24T00:06:51;18.20;99.90
19152;DHT22;9708;53.114;9.388;2023-08-24T00:09:18;18.10;99.90
19152;DHT22;9708;53.114;9.388;2023-08-24T00:11:45;18.10;99.90
19152;DHT22;9708;53.114;9.388;2023-08-24T00:14:12;18.00;99.90
19152;DHT22;9708;53.114;9.388;2023-08-24T00:16:40;17.90;99.90
19152;DHT22;9708;53.114;9.388;2023-08-24T00:19:07;17.90;99.90
19152;DHT22;9708;53.114;9.388;2023-08-24T00:21:34;17.80;99.90
19152;DHT22;9708;53.114;9.388;2023-08-24T00:24:01;17.80;99.90
19152;DHT22;9708;53.114;9.388;2023-08-24T00:26:27;17.80;99.90
19152;DHT22;9708;53.114;9.388;2023-08-24T00:28:54;17.70;99.90
19152;DHT22;9708;53.114;9.388;2023-08-24T00:31:21;17.70;99.90
19152;DHT22;9708;53.114;9.388;2023-08-24T00:33:49;17.70;99.90
19152;DHT22;9708;53.114;9.388;2023-08-24T00:36:16;17.60;99.90
19152;DHT22;9708;53.114;9.388;2023-08-24T00:38:44;17.50;99.90
19152;DHT22;9708;53.114;9.388;2023-08-24T00:41:16;17.40;99.90
19152;DHT22;9708;53.114;9.388;2023-08-24T00:43:43;17.40;99.90
19152;DHT22;9708;53.114;9.388;2023-08-24T00:46:10;17.40;99.90
19152;DHT22;9708;53.114;9.388;2023-08-24T00:48:37;17.30;99.90
19152;DHT22;9708;53.114;9.388;2023-08-24T00:51:05;17.30;99.90
19152;DHT22;9708;53.114;9.388;2023-08-24T00:53:32;17.30;99.90
19152;DHT22;9708;53.114;9.388;2023-08-24T00:56:00;17.20;99.90
19152;DHT22;9708;53.114;9.388;2023-08-24T00:58:27;17.20;99.90
19152;DHT22;9708;53.114;9.388;2023-08-24T01:00:55;17.10;99.90
19152;DHT22;9708;53.114;9.388;2023-08-24T01:03:22;17.10;99.90
19152;DHT22;9708;53.114;9.388;2023-08-24T01:05:49;17.00;99.90
19152;DHT22;9708;53.114;9.388;2023-08-24T01:08:18;17.00;99.90
19152;DHT22;9708;53.114;9.388;2023-08-24T01:10:52;17.00;99.90
19152;DHT22;9708;53.114;9.388;2023-08-24T01:13:42;17.00;99.90
19152;DHT22;9708;53.114;9.388;2023-08-24T01:16:14;16.90;99.90
19152;DHT22;9708;53.114;9.388;2023-08-24T01:18:43;16.80;99.90
19152;DHT22;9708;53.114;9.388;2023-08-24T01:21:10;16.80;99.90
19152;DHT22;9708;53.114;9.388;2023-08-24T01:23:48;16.80;99.90
19152;DHT22;9708;53.114;9.388;2023-08-24T01:26:18;16.70;99.90
19152;DHT22;9708;53.114;9.388;2023-08-24T01:28:47;16.70;99.90
19152;DHT22;9708;53.114;9.388;2023-08-24T01:31:14;16.70;99.90
19152;DHT22;9708;53.114;9.388;2023-08-24T01:33:43;16.70;99.90
19152;DHT22;9708;53.114;9.388;2023-08-24T02:00:50;16.40;99.90
19152;DHT22;9708;53.114;9.388;2023-08-24T02:03:17;16.40;99.90
19152;DHT22;9708;53.114;9.388;2023-08-24T02:05:44;16.40;99.90
19152;DHT22;9708;53.114;9.388;2023-08-24T02:08:11;16.40;99.90
19152;DHT22;9708;53.114;9.388;2023-08-24T02:10:37;16.40;99.90
19152;DHT22;9708;53.114;9.388;2023-08-24T02:13:04;16.40;99.90
19152;DHT22;9708;53.114;9.388;2023-08-24T02:15:31;16.30;99.90
19152;DHT22;9708;53.114;9.388;2023-08-24T02:17:59;16.30;99.90
19152;DHT22;9708;53.114;9.388;2023-08-24T02:20:26;16.20;99.90
19152;DHT22;9708;53.114;9.388;2023-08-24T02:22:53;16.20;99.90
19152;DHT22;9708;53.114;9.388;2023-08-24T02:25:23;16.20;99.90
19152;DHT22;9708;53.114;9.388;2023-08-24T02:27:50;16.20;99.90
19152;DHT22;9708;53.114;9.388;2023-08-24T02:30:17;16.30;99.90
19152;DHT22;9708;53.114;9.388;2023-08-24T02:32:43;16.20;99.90
19152;DHT22;9708;53.114;9.388;2023-08-24T02:35:12;16.20;99.90
19152;DHT22;9708;53.114;9.388;2023-08-24T02:37:39;16.20;99.90
19152;DHT22;9708;53.114;9.388;2023-08-24T02:40:07;16.10;99.90
19152;DHT22;9708;53.114;9.388;2023-08-24T02:42:34;16.00;99.90
19152;DHT22;9708;53.114;9.388;2023-08-24T02:45:02;16.00;99.90
19152;DHT22;9708;53.114;9.388;2023-08-24T02:47:29;16.00;99.90
19152;DHT22;9708;53.114;9.388;2023-08-24T02:49:56;16.00;99.90
19152;DHT22;9708;53.114;9.388;2023-08-24T02:52:24;15.90;99.90
19152;DHT22;9708;53.114;9.388;2023-08-24T02:54:53;15.90;99.90
19152;DHT22;9708;53.114;9.388;2023-08-24T02:57:20;15.90;99.90
19152;DHT22;9708;53.114;9.388;2023-08-24T02:59:47;15.80;99.90
19152;DHT22;9708;53.114;9.388;2023-08-24T03:02:13;15.80;99.90
19152;DHT22;9708;53.114;9.388;2023-08-24T03:04:40;15.80;99.90
19152;DHT22;9708;53.114;9.388;2023-08-24T03:07:07;15.80;99.90
19152;DHT22;9708;53.114;9.388;2023-08-24T03:09:37;15.70;99.90
19152;DHT22;9708;53.114;9.388;2023-08-24T03:12:05;15.70;99.90
19152;DHT22;9708;53.114;9.388;2023-08-24T03:14:31;15.70;99.90
19152;DHT22;9708;53.114;9.388;2023-08-24T03:16:58;15.70;99.90
19152;DHT22;9708;53.114;9.388;2023-08-24T03:19:25;15.60;99.90
19152;DHT22;9708;53.114;9.388;2023-08-24T03:21:52;15.70;99.90
19152;DHT22;9708;53.114;9.388;2023-08-24T03:24:19;15.70;99.90
19152;DHT22;9708;53.114;9.388;2023-08-24T03:26:47;15.70;99.90
19152;DHT22;9708;53.114;9.388;2023-08-24T03:29:13;15.70;99.90
19152;DHT22;9708;53.114;9.388;2023-08-24T03:31:40;15.70;99.90
19152;DHT22;9708;53.114;9.388;2023-08-24T03:34:07;15.70;99.90
19152;DHT22;9708;53.114;9.388;2023-08-24T03:36:34;15.80;99.90
19152;DHT22;9708;53.114;9.388;2023-08-24T03:39:01;15.80;99.90
19152;DHT22;9708;53.114;9.388;2023-08-24T03:41:28;15.90;99.90
19152;DHT22;9708;53.114;9.388;2023-08-24T03:43:56;15.90;99.90
19152;DHT22;9708;53.114;9.388;2023-08-24T03:46:22;16.00;99.90
19152;DHT22;9708;53.114;9.388;2023-08-24T03:48:49;15.90;99.90
19152;DHT22;9708;53.114;9.388;2023-08-24T03:51:16;16.00;99.90
19152;DHT22;9708;53.114;9.388;2023-08-24T03:53:43;16.00;99.90
19152;DHT22;9708;53.114;9.388;2023-08-24T03:56:10;16.00;99.90
19152;DHT22;9708;53.114;9.388;2023-08-24T03:58:37;16.10;99.90
19152;DHT22;9708;53.114;9.388;2023-08-24T04:01:09;16.10;99.90
19152;DHT22;9708;53.114;9.388;2023-08-24T04:03:36;16.10;99.90
19152;DHT22;9708;53.114;9.388;2023-08-24T04:06:03;16.10;99.90
19152;DHT22;9708;53.114;9.388;2023-08-24T04:08:31;16.10;99.90
19152;DHT22;9708;53.114;9.388;2023-08-24T04:10:57;16.20;99.90
19152;DHT22;9708;53.114;9.388;2023-08-24T04:13:23;16.20;99.90
19152;DHT22;9708;53.114;9.388;2023-08-24T04:15:50;16.10;99.90
19152;DHT22;9708;53.114;9.388;2023-08-24T04:18:18;16.20;99.90
19152;DHT22;9708;53.114;9.388;2023-08-24T04:20:45;16.20;99.90
19152;DHT22;9708;53.114;9.388;2023-08-24T04:23:13;16.30;99.90
19152;DHT22;9708;53.114;9.388;2023-08-24T04:25:40;16.30;99.90
19152;DHT22;9708;53.114;9.388;2023-08-24T04:28:06;16.30;99.90
19152;DHT22;9708;53.114;9.388;2023-08-24T04:30:33;16.30;99.90
19152;DHT22;9708;53.114;9.388;2023-08-24T04:33:00;16.30;99.90
19152;DHT22;9708;53.114;9.388;2023-08-24T04:35:33;16.30;99.90
19152;DHT22;9708;53.114;9.388;2023-08-24T04:38:00;16.30;99.90
19152;DHT22;9708;53.114;9.388;2023-08-24T04:40:27;16.30;99.90
19152;DHT22;9708;53.114;9.388;2023-08-24T04:42:54;16.30;99.90
19152;DHT22;9708;53.114;9.388;2023-08-24T04:45:21;16.30;99.90
19152;DHT22;9708;53.114;9.388;2023-08-24T04:47:48;16.30;99.90
19152;DHT22;9708;53.114;9.388;2023-08-24T04:50:15;16.40;99.90
19152;DHT22;9708;53.114;9.388;2023-08-24T04:52:43;16.40;99.90
19152;DHT22;9708;53.114;9.388;2023-08-24T04:55:10;16.50;99.90
19152;DHT22;9708;53.114;9.388;2023-08-24T04:57:36;16.60;99.90
19152;DHT22;9708;53.114;9.388;2023-08-24T05:00:04;16.60;99.90
19152;DHT22;9708;53.114;9.388;2023-08-24T05:02:31;16.70;99.90
19152;DHT22;9708;53.114;9.388;2023-08-24T05:04:58;16.70;99.90
19152;DHT22;9708;53.114;9.388;2023-08-24T05:07:25;16.80;99.90
19152;DHT22;9708;53.114;9.388;2023-08-24T05:09:55;16.80;99.90
19152;DHT22;9708;53.114;9.388;2023-08-24T05:12:21;16.90;99.90
19152;DHT22;9708;53.114;9.388;2023-08-24T05:14:48;16.90;99.90
19152;DHT22;9708;53.114;9.388;2023-08-24T05:17:15;16.90;99.90
19152;DHT22;9708;53.114;9.388;2023-08-24T05:19:42;17.00;99.90
19152;DHT22;9708;53.114;9.388;2023-08-24T05:22:08;17.00;99.90
19152;DHT22;9708;53.114;9.388;2023-08-24T05:24:35;17.10;99.90
19152;DHT22;9708;53.114;9.388;2023-08-24T05:27:03;17.20;99.90
19152;DHT22;9708;53.114;9.388;2023-08-24T05:29:30;17.20;99.90
19152;DHT22;9708;53.114;9.388;2023-08-24T05:31:57;17.30;99.90
19152;DHT22;9708;53.114;9.388;2023-08-24T05:34:24;17.20;99.90
19152;DHT22;9708;53.114;9.388;2023-08-24T05:36:51;17.30;99.90
19152;DHT22;9708;53.114;9.388;2023-08-24T05:39:18;17.30;99.90
19152;DHT22;9708;53.114;9.388;2023-08-24T05:41:44;17.30;99.90
19152;DHT22;9708;53.114;9.388;2023-08-24T05:44:12;17.40;99.90
19152;DHT22;9708;53.114;9.388;2023-08-24T05:46:39;17.60;99.90
19152;DHT22;9708;53.114;9.388;2023-08-24T05:49:06;17.70;99.90
19152;DHT22;9708;53.114;9.388;2023-08-24T05:51:33;17.80;99.90
19152;DHT22;9708;53.114;9.388;2023-08-24T05:54:00;17.90;99.90
19152;DHT22;9708;53.114;9.388;2023-08-24T05:56:27;18.00;99.90
19152;DHT22;9708;53.114;9.388;2023-08-24T05:58:54;18.00;99.90
19152;DHT22;9708;53.114;9.388;2023-08-24T06:01:22;18.20;99.90
19152;DHT22;9708;53.114;9.388;2023-08-24T06:03:51;18.20;99.90
19152;DHT22;9708;53.114;9.388;2023-08-24T06:06:18;18.20;99.90
19152;DHT22;9708;53.114;9.388;2023-08-24T06:08:45;18.20;99.90
19152;DHT22;9708;53.114;9.388;2023-08-24T06:11:11;18.30;99.90
19152;DHT22;9708;53.114;9.388;2023-08-24T06:13:38;18.40;99.90
19152;DHT22;9708;53.114;9.388;2023-08-24T06:16:05;18.70;99.90
19152;DHT22;9708;53.114;9.388;2023-08-24T06:18:33;19.00;99.90
19152;DHT22;9708;53.114;9.388;2023-08-24T06:21:00;19.30;99.90
19152;DHT22;9708;53.114;9.388;2023-08-24T06:23:27;19.50;99.90
19152;DHT22;9708;53.114;9.388;2023-08-24T06:25:54;19.50;99.90
19152;DHT22;9708;53.114;9.388;2023-08-24T06:28:20;19.50;99.90
19152;DHT22;9708;53.114;9.388;2023-08-24T06:30:47;19.30;99.90
19152;DHT22;9708;53.114;9.388;2023-08-24T06:33:17;19.10;99.90
19152;DHT22;9708;53.114;9.388;2023-08-24T06:35:45;19.00;99.90
19152;DHT22;9708;53.114;9.388;2023-08-24T06:38:13;18.90;99.90
19152;DHT22;9708;53.114;9.388;2023-08-24T06:40:39;19.00;99.90
19152;DHT22;9708;53.114;9.388;2023-08-24T06:43:06;19.30;99.90
19152;DHT22;9708;53.114;9.388;2023-08-24T06:45:33;20.80;99.90
19152;DHT22;9708;53.114;9.388;2023-08-24T06:48:00;23.00;99.90
19152;DHT22;9708;53.114;9.388;2023-08-24T06:50:27;24.50;99.90
19152;DHT22;9708;53.114;9.388;2023-08-24T06:52:55;25.80;99.90
19152;DHT22;9708;53.114;9.388;2023-08-24T06:55:22;26.10;99.90
19152;DHT22;9708;53.114;9.388;2023-08-24T06:57:48;26.70;99.90
19152;DHT22;9708;53.114;9.388;2023-08-24T07:00:17;27.00;99.90
19152;DHT22;9708;53.114;9.388;2023-08-24T07:02:45;27.70;99.90
19152;DHT22;9708;53.114;9.388;2023-08-24T07:05:12;27.50;99.90
19152;DHT22;9708;53.114;9.388;2023-08-24T07:07:39;27.10;99.90
19152;DHT22;9708;53.114;9.388;2023-08-24T07:10:08;26.70;99.90
19152;DHT22;9708;53.114;9.388;2023-08-24T07:12:35;27.50;99.90
19152;DHT22;9708;53.114;9.388;2023-08-24T07:15:01;27.90;99.90
19152;DHT22;9708;53.114;9.388;2023-08-24T07:17:28;28.20;99.90
19152;DHT22;9708;53.114;9.388;2023-08-24T07:19:55;27.60;99.90
19152;DHT22;9708;53.114;9.388;2023-08-24T07:22:22;26.90;99.90
19152;DHT22;9708;53.114;9.388;2023-08-24T07:24:49;26.80;99.90
19152;DHT22;9708;53.114;9.388;2023-08-24T07:27:19;26.90;99.90
19152;DHT22;9708;53.114;9.388;2023-08-24T07:29:46;27.40;99.90
19152;DHT22;9708;53.114;9.388;2023-08-24T07:32:13;27.50;99.90
19152;DHT22;9708;53.114;9.388;2023-08-24T07:34:40;27.40;99.90
19152;DHT22;9708;53.114;9.388;2023-08-24T07:37:06;27.40;99.90
19152;DHT22;9708;53.114;9.388;2023-08-24T07:39:33;27.30;99.90
19152;DHT22;9708;53.114;9.388;2023-08-24T07:42:00;26.90;99.90
19152;DHT22;9708;53.114;9.388;2023-08-24T07:44:28;27.40;99.90
19152;DHT22;9708;53.114;9.388;2023-08-24T07:46:55;27.60;99.90
19152;DHT22;9708;53.114;9.388;2023-08-24T07:49:22;27.40;99.90
19152;DHT22;9708;53.114;9.388;2023-08-24T07:51:49;27.60;99.90
19152;DHT22;9708;53.114;9.388;2023-08-24T07:54:16;27.30;99.90
19152;DHT22;9708;53.114;9.388;2023-08-24T07:56:42;27.60;99.90
19152;DHT22;9708;53.114;9.388;2023-08-24T07:59:09;27.60;99.90
19152;DHT22;9708;53.114;9.388;2023-08-24T08:01:37;27.30;99.90
19152;DHT22;9708;53.114;9.388;2023-08-24T08:04:04;27.40;99.90
19152;DHT22;9708;53.114;9.388;2023-08-24T08:06:31;27.60;99.90
19152;DHT22;9708;53.114;9.388;2023-08-24T08:08:58;27.60;99.90
19152;DHT22;9708;53.114;9.388;2023-08-24T08:11:24;27.10;99.90
19152;DHT22;9708;53.114;9.388;2023-08-24T08:13:51;27.10;99.90
19152;DHT22;9708;53.114;9.388;2023-08-24T08:16:18;27.50;99.90
19152;DHT22;9708;53.114;9.388;2023-08-24T08:18:46;26.30;99.90
19152;DHT22;9708;53.114;9.388;2023-08-24T08:21:15;26.00;99.90
19152;DHT22;9708;53.114;9.388;2023-08-24T08:23:43;25.50;99.90
19152;DHT22;9708;53.114;9.388;2023-08-24T08:26:10;25.50;99.90
19152;DHT22;9708;53.114;9.388;2023-08-24T08:28:39;25.60;99.90
19152;DHT22;9708;53.114;9.388;2023-08-24T08:31:05;26.40;99.90
19152;DHT22;9708;53.114;9.388;2023-08-24T08:33:32;26.30;99.90
19152;DHT22;9708;53.114;9.388;2023-08-24T08:36:00;25.50;99.90
19152;DHT22;9708;53.114;9.388;2023-08-24T08:38:28;26.10;99.90
19152;DHT22;9708;53.114;9.388;2023-08-24T08:40:56;26.20;99.90
19152;DHT22;9708;53.114;9.388;2023-08-24T08:43:28;26.70;99.90
19152;DHT22;9708;53.114;9.388;2023-08-24T08:45:56;26.60;99.90
19152;DHT22;9708;53.114;9.388;2023-08-24T08:48:23;26.20;99.90
19152;DHT22;9708;53.114;9.388;2023-08-24T08:50:52;26.50;99.90
19152;DHT22;9708;53.114;9.388;2023-08-24T08:53:22;27.20;99.90
19152;DHT22;9708;53.114;9.388;2023-08-24T08:55:51;27.10;99.90
19152;DHT22;9708;53.114;9.388;2023-08-24T08:58:19;27.20;99.90
19152;DHT22;9708;53.114;9.388;2023-08-24T09:00:46;27.80;99.90
19152;DHT22;9708;53.114;9.388;2023-08-24T09:03:14;27.00;99.90
19152;DHT22;9708;53.114;9.388;2023-08-24T09:05:41;26.90;99.90
19152;DHT22;9708;53.114;9.388;2023-08-24T09:08:08;27.80;99.90
19152;DHT22;9708;53.114;9.388;2023-08-24T09:10:36;28.10;99.90
19152;DHT22;9708;53.114;9.388;2023-08-24T09:13:03;27.50;99.90
19152;DHT22;9708;53.114;9.388;2023-08-24T09:15:34;27.70;99.90
19152;DHT22;9708;53.114;9.388;2023-08-24T09:18:02;28.00;99.90
19152;DHT22;9708;53.114;9.388;2023-08-24T09:20:29;28.00;99.90
19152;DHT22;9708;53.114;9.388;2023-08-24T09:22:56;28.00;99.90
19152;DHT22;9708;53.114;9.388;2023-08-24T09:25:23;28.80;99.90
19152;DHT22;9708;53.114;9.388;2023-08-24T09:27:57;28.60;99.90
19152;DHT22;9708;53.114;9.388;2023-08-24T09:30:29;29.20;99.90
19152;DHT22;9708;53.114;9.388;2023-08-24T09:33:01;29.20;99.90
19152;DHT22;9708;53.114;9.388;2023-08-24T09:35:28;29.40;99.90
19152;DHT22;9708;53.114;9.388;2023-08-24T09:37:55;29.10;99.90
19152;DHT22;9708;53.114;9.388;2023-08-24T09:40:24;29.60;99.90
19152;DHT22;9708;53.114;9.388;2023-08-24T09:42:51;30.10;99.90
19152;DHT22;9708;53.114;9.388;2023-08-24T09:45:19;30.10;99.90
19152;DHT22;9708;53.114;9.388;2023-08-24T09:47:49;30.10;99.90
19152;DHT22;9708;53.114;9.388;2023-08-24T09:50:17;29.90;99.90
19152;DHT22;9708;53.114;9.388;2023-08-24T09:52:44;29.80;99.90
19152;DHT22;9708;53.114;9.388;2023-08-24T09:55:18;29.60;99.90
19152;DHT22;9708;53.114;9.388;2023-08-24T09:57:47;29.40;99.90
19152;DHT22;9708;53.114;9.388;2023-08-24T10:00:16;29.30;99.90
19152;DHT22;9708;53.114;9.388;2023-08-24T10:02:51;29.60;99.90
19152;DHT22;9708;53.114;9.388;2023-08-24T10:05:20;29.80;99.90
19152;DHT22;9708;53.114;9.388;2023-08-24T10:07:51;29.80;99.90
19152;DHT22;9708;53.114;9.388;2023-08-24T10:10:19;29.90;99.90
19152;DHT22;9708;53.114;9.388;2023-08-24T10:12:50;30.30;99.90
19152;DHT22;9708;53.114;9.388;2023-08-24T10:15:17;30.40;99.90
19152;DHT22;9708;53.114;9.388;2023-08-24T10:17:50;29.90;99.90
19152;DHT22;9708;53.114;9.388;2023-08-24T10:20:19;30.00;99.90
19152;DHT22;9708;53.114;9.388;2023-08-24T10:22:46;30.20;99.90
19152;DHT22;9708;53.114;9.388;2023-08-24T10:25:16;30.00;99.90
19152;DHT22;9708;53.114;9.388;2023-08-24T10:27:43;30.10;99.90
19152;DHT22;9708;53.114;9.388;2023-08-24T10:30:14;30.20;99.90
19152;DHT22;9708;53.114;9.388;2023-08-24T10:32:41;30.20;99.90
19152;DHT22;9708;53.114;9.388;2023-08-24T10:35:12;30.30;99.90
19152;DHT22;9708;53.114;9.388;2023-08-24T10:37:41;30.60;99.90
19152;DHT22;9708;53.114;9.388;2023-08-24T10:40:11;30.60;99.90
19152;DHT22;9708;53.114;9.388;2023-08-24T10:42:44;30.50;99.90
19152;DHT22;9708;53.114;9.388;2023-08-24T10:45:13;30.40;99.90
19152;DHT22;9708;53.114;9.388;2023-08-24T10:47:51;30.50;99.90
19152;DHT22;9708;53.114;9.388;2023-08-24T10:50:22;30.50;99.90
19152;DHT22;9708;53.114;9.388;2023-08-24T10:52:49;30.60;99.90
19152;DHT22;9708;53.114;9.388;2023-08-24T10:55:23;30.90;99.90
19152;DHT22;9708;53.114;9.388;2023-08-24T10:57:57;30.80;99.90
19152;DHT22;9708;53.114;9.388;2023-08-24T11:00:27;31.00;99.90
19152;DHT22;9708;53.114;9.388;2023-08-24T11:02:55;30.50;99.90
19152;DHT22;9708;53.114;9.388;2023-08-24T11:05:25;30.50;99.90
19152;DHT22;9708;53.114;9.388;2023-08-24T11:07:55;30.70;99.90
19152;DHT22;9708;53.114;9.388;2023-08-24T11:10:23;30.70;99.90
19152;DHT22;9708;53.114;9.388;2023-08-24T11:13:10;30.70;99.90
19152;DHT22;9708;53.114;9.388;2023-08-24T11:15:38;30.10;99.90
19152;DHT22;9708;53.114;9.388;2023-08-24T11:18:22;29.70;99.90
19152;DHT22;9708;53.114;9.388;2023-08-24T11:20:52;29.80;99.90
19152;DHT22;9708;53.114;9.388;2023-08-24T11:23:21;29.90;99.90
19152;DHT22;9708;53.114;9.388;2023-08-24T11:25:49;29.70;99.90
19152;DHT22;9708;53.114;9.388;2023-08-24T11:28:17;29.90;99.90
19152;DHT22;9708;53.114;9.388;2023-08-24T11:30:45;30.10;99.90
19152;DHT22;9708;53.114;9.388;2023-08-24T11:33:13;29.80;99.90
19152;DHT22;9708;53.114;9.388;2023-08-24T11:35:42;29.50;99.90
19152;DHT22;9708;53.114;9.388;2023-08-24T11:38:11;29.00;99.90
19152;DHT22;9708;53.114;9.388;2023-08-24T11:40:38;28.80;99.90
19152;DHT22;9708;53.114;9.388;2023-08-24T11:43:05;28.30;99.90
19152;DHT22;9708;53.114;9.388;2023-08-24T11:45:33;28.50;99.90
19152;DHT22;9708;53.114;9.388;2023-08-24T11:48:02;28.90;99.90
19152;DHT22;9708;53.114;9.388;2023-08-24T11:50:30;28.70;99.90
19152;DHT22;9708;53.114;9.388;2023-08-24T11:52:56;29.20;99.90
19152;DHT22;9708;53.114;9.388;2023-08-24T11:55:26;29.70;99.90
19152;DHT22;9708;53.114;9.388;2023-08-24T11:57:53;29.80;99.90
19152;DHT22;9708;53.114;9.388;2023-08-24T12:00:21;28.70;99.90
19152;DHT22;9708;53.114;9.388;2023-08-24T12:02:48;29.10;99.90
19152;DHT22;9708;53.114;9.388;2023-08-24T12:05:22;29.70;99.90
19152;DHT22;9708;53.114;9.388;2023-08-24T12:07:50;30.10;99.90
19152;DHT22;9708;53.114;9.388;2023-08-24T12:10:17;30.70;99.90
19152;DHT22;9708;53.114;9.388;2023-08-24T12:12:46;31.10;99.90
19152;DHT22;9708;53.114;9.388;2023-08-24T12:15:16;31.50;99.90
19152;DHT22;9708;53.114;9.388;2023-08-24T12:17:46;31.10;99.90
19152;DHT22;9708;53.114;9.388;2023-08-24T12:20:18;30.60;99.90
19152;DHT22;9708;53.114;9.388;2023-08-24T12:22:50;30.00;99.90
19152;DHT22;9708;53.114;9.388;2023-08-24T12:25:17;30.00;99.90
19152;DHT22;9708;53.114;9.388;2023-08-24T12:27:45;29.50;99.90
19152;DHT22;9708;53.114;9.388;2023-08-24T12:30:12;29.70;99.90
19152;DHT22;9708;53.114;9.388;2023-08-24T12:32:43;29.80;99.90
19152;DHT22;9708;53.114;9.388;2023-08-24T12:35:10;29.70;99.90
19152;DHT22;9708;53.114;9.388;2023-08-24T12:37:37;29.40;99.90
19152;DHT22;9708;53.114;9.388;2023-08-24T12:40:05;28.70;99.90
19152;DHT22;9708;53.114;9.388;2023-08-24T12:42:32;28.60;99.90
19152;DHT22;9708;53.114;9.388;2023-08-24T12:45:00;28.60;99.90
19152;DHT22;9708;53.114;9.388;2023-08-24T12:47:28;28.60;99.90
19152;DHT22;9708;53.114;9.388;2023-08-24T12:49:55;28.60;99.90
19152;DHT22;9708;53.114;9.388;2023-08-24T12:52:22;28.60;99.90
19152;DHT22;9708;53.114;9.388;2023-08-24T12:54:50;28.30;99.90
19152;DHT22;9708;53.114;9.388;2023-08-24T12:57:17;28.30;99.90
19152;DHT22;9708;53.114;9.388;2023-08-24T12:59:43;28.20;99.90
19152;DHT22;9708;53.114;9.388;2023-08-24T13:02:13;28.20;99.90
19152;DHT22;9708;53.114;9.388;2023-08-24T13:04:39;28.30;99.90
19152;DHT22;9708;53.114;9.388;2023-08-24T13:07:06;28.30;99.90
19152;DHT22;9708;53.114;9.388;2023-08-24T13:09:34;28.50;99.90
19152;DHT22;9708;53.114;9.388;2023-08-24T13:12:03;28.40;99.90
19152;DHT22;9708;53.114;9.388;2023-08-24T13:14:30;28.30;99.90
19152;DHT22;9708;53.114;9.388;2023-08-24T13:16:56;28.00;99.90
19152;DHT22;9708;53.114;9.388;2023-08-24T13:19:24;28.10;99.90
19152;DHT22;9708;53.114;9.388;2023-08-24T13:21:51;27.90;99.90
19152;DHT22;9708;53.114;9.388;2023-08-24T13:24:18;27.90;99.90
19152;DHT22;9708;53.114;9.388;2023-08-24T13:26:45;28.10;99.90
19152;DHT22;9708;53.114;9.388;2023-08-24T13:29:11;28.60;99.90
19152;DHT22;9708;53.114;9.388;2023-08-24T13:31:38;28.90;99.90
19152;DHT22;9708;53.114;9.388;2023-08-24T13:34:05;29.00;99.90
19152;DHT22;9708;53.114;9.388;2023-08-24T13:36:34;28.70;99.90
19152;DHT22;9708;53.114;9.388;2023-08-24T13:39:01;29.20;99.90
19152;DHT22;9708;53.114;9.388;2023-08-24T13:41:28;29.50;99.90
19152;DHT22;9708;53.114;9.388;2023-08-24T13:43:55;30.10;99.90
19152;DHT22;9708;53.114;9.388;2023-08-24T13:46:22;29.80;99.90
19152;DHT22;9708;53.114;9.388;2023-08-24T13:48:48;29.70;99.90
19152;DHT22;9708;53.114;9.388;2023-08-24T13:51:15;29.40;99.90
19152;DHT22;9708;53.114;9.388;2023-08-24T13:53:43;29.20;99.90
19152;DHT22;9708;53.114;9.388;2023-08-24T13:56:10;28.90;99.90
19152;DHT22;9708;53.114;9.388;2023-08-24T13:58:37;28.70;99.90
19152;DHT22;9708;53.114;9.388;2023-08-24T14:01:04;28.40;99.90
19152;DHT22;9708;53.114;9.388;2023-08-24T14:03:30;28.30;99.90
19152;DHT22;9708;53.114;9.388;2023-08-24T14:05:57;28.40;99.90
19152;DHT22;9708;53.114;9.388;2023-08-24T14:08:24;28.00;99.90
19152;DHT22;9708;53.114;9.388;2023-08-24T14:10:53;28.00;99.90
19152;DHT22;9708;53.114;9.388;2023-08-24T14:13:19;27.90;99.90
19152;DHT22;9708;53.114;9.388;2023-08-24T14:15:47;27.70;99.90
19152;DHT22;9708;53.114;9.388;2023-08-24T14:18:15;27.80;99.90
19152;DHT22;9708;53.114;9.388;2023-08-24T14:20:42;27.70;99.90
19152;DHT22;9708;53.114;9.388;2023-08-24T14:23:09;27.70;99.90
19152;DHT22;9708;53.114;9.388;2023-08-24T14:25:36;27.70;99.90
19152;DHT22;9708;53.114;9.388;2023-08-24T14:28:04;27.80;99.90
19152;DHT22;9708;53.114;9.388;2023-08-24T14:30:31;27.90;99.90
19152;DHT22;9708;53.114;9.388;2023-08-24T14:32:58;27.90;99.90
19152;DHT22;9708;53.114;9.388;2023-08-24T14:35:25;27.90;99.90
19152;DHT22;9708;53.114;9.388;2023-08-24T14:37:52;27.80;99.90
19152;DHT22;9708;53.114;9.388;2023-08-24T14:40:19;27.90;99.90
19152;DHT22;9708;53.114;9.388;2023-08-24T14:42:49;27.80;99.90
19152;DHT22;9708;53.114;9.388;2023-08-24T14:45:17;27.70;99.90
19152;DHT22;9708;53.114;9.388;2023-08-24T14:47:45;27.40;99.90
19152;DHT22;9708;53.114;9.388;2023-08-24T14:50:12;27.50;99.90
19152;DHT22;9708;53.114;9.388;2023-08-24T14:52:39;27.50;99.90
19152;DHT22;9708;53.114;9.388;2023-08-24T14:55:07;27.50;99.90
19152;DHT22;9708;53.114;9.388;2023-08-24T14:57:35;27.50;99.90
19152;DHT22;9708;53.114;9.388;2023-08-24T15:00:02;27.40;99.90
19152;DHT22;9708;53.114;9.388;2023-08-24T15:02:32;27.50;99.90
19152;DHT22;9708;53.114;9.388;2023-08-24T15:04:58;27.40;99.90
19152;DHT22;9708;53.114;9.388;2023-08-24T15:07:25;27.30;99.90
19152;DHT22;9708;53.114;9.388;2023-08-24T15:09:52;27.10;99.90
19152;DHT22;9708;53.114;9.388;2023-08-24T15:12:20;27.00;99.90
19152;DHT22;9708;53.114;9.388;2023-08-24T15:14:57;27.00;99.90
19152;DHT22;9708;53.114;9.388;2023-08-24T15:17:23;27.00;99.90
19152;DHT22;9708;53.114;9.388;2023-08-24T15:19:52;27.00;99.90
19152;DHT22;9708;53.114;9.388;2023-08-24T15:22:18;27.10;99.90
19152;DHT22;9708;53.114;9.388;2023-08-24T15:24:45;27.20;99.90
19152;DHT22;9708;53.114;9.388;2023-08-24T15:27:12;27.00;99.90
19152;DHT22;9708;53.114;9.388;2023-08-24T15:29:39;27.00;99.90
19152;DHT22;9708;53.114;9.388;2023-08-24T15:32:06;27.30;99.90
19152;DHT22;9708;53.114;9.388;2023-08-24T15:34:32;27.10;99.90
19152;DHT22;9708;53.114;9.388;2023-08-24T15:37:00;27.00;99.90
19152;DHT22;9708;53.114;9.388;2023-08-24T15:39:27;27.00;99.90
19152;DHT22;9708;53.114;9.388;2023-08-24T15:41:54;27.00;99.90
19152;DHT22;9708;53.114;9.388;2023-08-24T15:44:21;27.00;99.90
19152;DHT22;9708;53.114;9.388;2023-08-24T15:46:47;27.00;99.90
19152;DHT22;9708;53.114;9.388;2023-08-24T15:49:14;26.90;99.90
19152;DHT22;9708;53.114;9.388;2023-08-24T15:51:41;26.90;99.90
19152;DHT22;9708;53.114;9.388;2023-08-24T15:54:09;27.00;99.90
19152;DHT22;9708;53.114;9.388;2023-08-24T15:56:36;26.80;99.90
19152;DHT22;9708;53.114;9.388;2023-08-24T15:59:03;27.00;99.90
19152;DHT22;9708;53.114;9.388;2023-08-24T16:01:30;26.80;99.90
19152;DHT22;9708;53.114;9.388;2023-08-24T16:03:57;26.70;99.90
19152;DHT22;9708;53.114;9.388;2023-08-24T16:06:23;26.70;99.90
19152;DHT22;9708;53.114;9.388;2023-08-24T16:08:50;26.60;99.90
19152;DHT22;9708;53.114;9.388;2023-08-24T16:11:20;26.60;99.90
19152;DHT22;9708;53.114;9.388;2023-08-24T16:13:49;26.60;99.90